createdAt,value
2019-02-19T00:00:51.103Z,27.20
2019-02-19T00:03:20.850Z,18.97
2019-02-19T00:05:50.315Z,18.77
2019-02-19T00:08:20.074Z,18.53
2019-02-19T00:10:49.517Z,17.83
2019-02-19T00:13:19.306Z,17.50
2019-02-19T00:15:49.107Z,17.67
2019-02-19T00:18:18.618Z,17.27
2019-02-19T00:20:50.715Z,15.80
2019-02-19T00:23:20.175Z,19.70
2019-02-19T00:25:49.861Z,19.67
2019-02-19T00:28:19.429Z,19.03
2019-02-19T00:30:49.119Z,17.80
2019-02-19T00:33:18.776Z,18.93
2019-02-19T00:35:48.456Z,27.57
2019-02-19T00:38:18.186Z,26.17
2019-02-19T00:40:47.837Z,25.70
2019-02-19T00:43:17.479Z,26.97
2019-02-19T00:45:47.222Z,31.17
2019-02-19T00:48:16.857Z,37.77
2019-02-19T00:50:46.501Z,38.93
2019-02-19T00:53:16.203Z,38.00
2019-02-19T00:55:45.665Z,34.30
2019-02-19T00:58:15.452Z,37.67
2019-02-19T01:00:45.212Z,36.53
2019-02-19T01:03:14.959Z,40.13
2019-02-19T01:05:44.871Z,38.60
2019-02-19T01:08:14.612Z,36.23
2019-02-19T01:10:44.234Z,38.90
2019-02-19T01:13:13.888Z,40.30
2019-02-19T01:15:43.671Z,41.83
2019-02-19T01:18:13.403Z,42.90
2019-02-19T01:20:43.137Z,43.57
2019-02-19T01:23:12.849Z,43.40
2019-02-19T01:25:42.591Z,49.07
2019-02-19T01:28:12.167Z,49.20
2019-02-19T01:30:41.801Z,45.00
2019-02-19T01:33:13.309Z,46.80
2019-02-19T01:35:43.007Z,47.30
2019-02-19T01:38:12.721Z,47.37
2019-02-19T01:40:42.476Z,47.17
2019-02-19T01:43:12.020Z,49.30
2019-02-19T01:45:41.918Z,47.37
2019-02-19T01:48:11.560Z,46.80
2019-02-19T01:50:41.218Z,36.17
2019-02-19T01:53:11.119Z,35.97
2019-02-19T01:55:40.847Z,32.63
2019-02-19T01:58:10.574Z,34.03
2019-02-19T02:00:40.199Z,42.67
2019-02-19T02:03:09.841Z,35.93
2019-02-19T02:05:39.532Z,40.43
2019-02-19T02:08:09.244Z,46.03
2019-02-19T02:10:39.818Z,40.53
2019-02-19T02:13:09.437Z,26.20
2019-02-19T02:15:42.685Z,32.27
2019-02-19T02:18:10.388Z,38.80
2019-02-19T02:20:41.043Z,43.77
2019-02-19T02:23:10.763Z,37.90
2019-02-19T02:25:40.443Z,41.17
2019-02-19T02:28:09.956Z,33.10
2019-02-19T02:30:39.651Z,27.13
2019-02-19T02:33:09.406Z,25.23
2019-02-19T02:35:39.090Z,25.77
2019-02-19T02:38:08.865Z,21.47
2019-02-19T02:40:38.638Z,28.77
2019-02-19T02:43:08.066Z,27.23
2019-02-19T02:45:37.809Z,29.70
2019-02-19T02:48:07.533Z,33.43
2019-02-19T02:50:37.149Z,33.07
2019-02-19T02:53:06.935Z,32.13
2019-02-19T02:55:36.641Z,29.73
2019-02-19T02:58:06.278Z,26.90
2019-02-19T03:00:36.058Z,30.73
2019-02-19T03:03:05.938Z,30.70
2019-02-19T03:05:37.502Z,34.90
2019-02-19T03:08:07.576Z,35.00
2019-02-19T03:10:37.210Z,36.27
2019-02-19T03:13:06.930Z,35.97
2019-02-19T03:15:36.681Z,37.07
2019-02-19T03:18:06.409Z,36.33
2019-02-19T03:20:36.132Z,37.83
2019-02-19T03:23:05.697Z,35.67
2019-02-19T03:25:35.332Z,37.43
2019-02-19T03:28:05.039Z,35.50
2019-02-19T03:30:34.815Z,36.70
2019-02-19T03:33:04.518Z,37.60
2019-02-19T03:35:34.023Z,35.57
2019-02-19T03:38:03.703Z,35.30
2019-02-19T03:40:33.550Z,33.70
2019-02-19T03:43:03.003Z,41.03
2019-02-19T03:45:32.619Z,35.30
2019-02-19T03:48:02.304Z,49.43
2019-02-19T03:50:32.009Z,45.70
2019-02-19T03:53:01.809Z,48.23
2019-02-19T03:55:31.826Z,48.53
2019-02-19T03:58:01.687Z,54.77
2019-02-19T04:00:31.526Z,71.93
2019-02-19T04:03:01.225Z,36.40
2019-02-19T04:05:31.201Z,51.50
2019-02-19T04:08:00.873Z,45.30
2019-02-19T04:10:30.511Z,33.13
2019-02-19T04:13:01.092Z,31.20
2019-02-19T04:15:32.871Z,30.03
2019-02-19T04:18:02.142Z,61.97
2019-02-19T04:20:32.825Z,33.93
2019-02-19T04:23:03.952Z,29.57
2019-02-19T04:25:33.839Z,30.27
2019-02-19T04:28:06.383Z,44.97
2019-02-19T04:30:36.169Z,38.47
2019-02-19T04:33:06.031Z,30.93
2019-02-19T04:35:36.581Z,31.23
2019-02-19T04:38:06.243Z,30.97
2019-02-19T04:40:35.872Z,30.70
2019-02-19T04:43:07.497Z,30.90
2019-02-19T04:45:38.192Z,31.60
2019-02-19T04:48:08.040Z,33.20
2019-02-19T04:50:37.798Z,31.37
2019-02-19T04:53:07.469Z,34.77
2019-02-19T04:55:37.123Z,37.23
2019-02-19T04:58:06.739Z,36.47
2019-02-19T05:00:36.654Z,36.53
2019-02-19T05:03:06.236Z,55.37
2019-02-19T05:05:35.960Z,38.80
2019-02-19T05:08:05.554Z,40.70
2019-02-19T05:10:35.600Z,40.77
2019-02-19T05:13:05.353Z,40.70
2019-02-19T05:15:35.140Z,42.57
2019-02-19T05:18:04.808Z,43.03
2019-02-19T05:20:34.483Z,44.30
2019-02-19T05:23:04.224Z,44.83
2019-02-19T05:25:34.098Z,44.57
2019-02-19T05:28:03.866Z,46.03
2019-02-19T05:30:33.498Z,46.60
2019-02-19T05:33:03.173Z,46.93
2019-02-19T05:35:32.745Z,46.07
2019-02-19T05:38:02.419Z,59.90
2019-02-19T05:40:31.927Z,46.63
2019-02-19T05:43:01.669Z,50.67
2019-02-19T05:45:31.242Z,48.27
2019-02-19T05:48:00.967Z,44.43
2019-02-19T05:50:30.673Z,45.67
2019-02-19T05:53:03.712Z,48.90
2019-02-19T05:55:33.313Z,48.13
2019-02-19T05:58:07.703Z,48.57
2019-02-19T06:00:37.416Z,53.20
2019-02-19T06:03:07.136Z,58.37
2019-02-19T06:05:36.861Z,50.27
2019-02-19T06:08:06.505Z,49.90
2019-02-19T06:10:36.136Z,50.80
2019-02-19T06:13:05.713Z,53.27
2019-02-19T06:15:35.396Z,47.60
2019-02-19T06:18:04.857Z,48.83
2019-02-19T06:20:34.487Z,52.10
2019-02-19T06:23:04.259Z,52.57
2019-02-19T06:25:33.999Z,51.07
2019-02-19T06:28:03.712Z,51.57
2019-02-19T06:30:34.463Z,58.73
2019-02-19T06:33:04.177Z,57.67
2019-02-19T06:35:33.807Z,52.20
2019-02-19T06:38:03.710Z,56.73
2019-02-19T06:40:33.256Z,54.90
2019-02-19T06:43:03.002Z,56.20
2019-02-19T06:45:32.468Z,40.00
2019-02-19T06:48:01.998Z,36.97
2019-02-19T06:50:31.740Z,50.87
2019-02-19T06:53:01.386Z,50.47
2019-02-19T06:55:31.043Z,41.50
2019-02-19T06:58:00.718Z,45.23
2019-02-19T07:00:30.459Z,45.13
2019-02-19T07:03:19.012Z,44.87
2019-02-19T07:05:48.640Z,42.83
2019-02-19T07:08:18.241Z,42.50
2019-02-19T07:10:48.016Z,42.20
2019-02-19T07:13:17.695Z,43.47
2019-02-19T07:15:47.352Z,43.17
2019-02-19T07:18:18.979Z,41.33
2019-02-19T07:20:48.759Z,42.13
2019-02-19T07:23:18.225Z,40.13
2019-02-19T07:25:48.001Z,40.00
2019-02-19T07:28:17.588Z,37.90
2019-02-19T07:30:47.310Z,36.70
2019-02-19T07:33:17.095Z,40.37
2019-02-19T07:35:46.703Z,50.00
2019-02-19T07:38:16.302Z,35.00
2019-02-19T07:40:45.908Z,35.60
2019-02-19T07:43:15.529Z,35.57
2019-02-19T07:45:45.158Z,32.10
2019-02-19T07:48:14.843Z,35.87
2019-02-19T07:50:44.518Z,35.57
2019-02-19T07:53:14.177Z,36.20
2019-02-19T07:55:43.782Z,31.30
2019-02-19T07:58:13.521Z,32.30
2019-02-19T08:00:43.334Z,32.80
2019-02-19T08:03:13.078Z,33.90
2019-02-19T08:05:42.752Z,37.17
2019-02-19T08:08:12.335Z,33.33
2019-02-19T08:10:41.991Z,32.63
2019-02-19T08:13:11.648Z,33.73
2019-02-19T08:15:41.414Z,33.50
2019-02-19T08:18:11.009Z,32.63
2019-02-19T08:20:40.669Z,32.87
2019-02-19T08:23:10.405Z,32.87
2019-02-19T08:25:39.914Z,29.43
2019-02-19T08:28:09.579Z,27.50
2019-02-19T08:30:39.200Z,27.47
2019-02-19T08:33:09.053Z,27.47
2019-02-19T08:35:38.729Z,25.87
2019-02-19T08:38:08.199Z,25.30
2019-02-19T08:40:37.986Z,23.27
2019-02-19T08:43:07.547Z,23.53
2019-02-19T08:45:37.117Z,22.63
2019-02-19T08:48:06.595Z,23.90
2019-02-19T08:50:36.375Z,24.10
2019-02-19T08:53:05.883Z,22.90
2019-02-19T08:55:35.630Z,23.50
2019-02-19T08:58:05.302Z,25.43
2019-02-19T09:00:34.926Z,25.97
2019-02-19T09:03:04.790Z,29.17
2019-02-19T09:05:34.346Z,27.10
2019-02-19T09:08:04.208Z,29.80
2019-02-19T09:10:33.882Z,30.73
2019-02-19T09:13:03.474Z,28.57
2019-02-19T09:15:33.123Z,27.70
2019-02-19T09:18:02.718Z,28.77
2019-02-19T09:20:32.325Z,29.07
2019-02-19T09:23:02.008Z,27.47
2019-02-19T09:25:31.617Z,26.30
2019-02-19T09:28:01.351Z,26.47
2019-02-19T09:30:31.022Z,24.07
2019-02-19T09:33:00.867Z,21.57
2019-02-19T09:35:31.820Z,21.33
2019-02-19T09:38:01.538Z,20.40
2019-02-19T09:40:31.244Z,20.87
2019-02-19T09:43:00.899Z,18.23
2019-02-19T09:45:30.522Z,21.40
2019-02-19T09:48:01.425Z,23.87
2019-02-19T09:50:31.525Z,24.93
2019-02-19T09:53:01.383Z,25.67
2019-02-19T09:55:31.082Z,26.20
2019-02-19T09:58:00.842Z,26.73
2019-02-19T10:00:30.372Z,25.77
2019-02-19T10:02:59.993Z,27.63
2019-02-19T10:05:29.610Z,28.87
2019-02-19T10:07:59.293Z,28.00
2019-02-19T10:10:29.023Z,27.10
2019-02-19T10:12:58.783Z,27.07
2019-02-19T10:15:28.456Z,26.07
2019-02-19T10:17:58.354Z,28.83
2019-02-19T10:20:28.021Z,23.90
2019-02-19T10:22:57.646Z,25.93
2019-02-19T10:25:27.308Z,24.90
2019-02-19T10:27:57.009Z,24.03
2019-02-19T10:30:26.890Z,22.63
2019-02-19T10:32:56.490Z,24.50
2019-02-19T10:35:26.111Z,23.20
2019-02-19T10:37:55.644Z,23.97
2019-02-19T10:40:25.180Z,23.33
2019-02-19T10:42:54.699Z,22.87
2019-02-19T10:45:24.536Z,22.13
2019-02-19T10:47:54.307Z,21.27
2019-02-19T10:50:23.992Z,21.63
2019-02-19T10:52:53.771Z,20.97
2019-02-19T10:55:23.463Z,21.00
2019-02-19T10:57:53.056Z,20.63
2019-02-19T11:00:22.967Z,17.23
2019-02-19T11:02:52.559Z,19.60
2019-02-19T11:05:22.529Z,18.67
2019-02-19T11:07:52.369Z,18.80
2019-02-19T11:10:21.995Z,17.43
2019-02-19T11:12:51.620Z,18.13
2019-02-19T11:15:21.246Z,18.20
2019-02-19T11:17:50.758Z,17.70
2019-02-19T11:20:20.393Z,17.37
2019-02-19T11:22:50.095Z,16.63
2019-02-19T11:25:19.644Z,17.50
2019-02-19T11:27:49.379Z,18.10
2019-02-19T11:30:20.429Z,17.43
2019-02-19T11:32:50.377Z,17.17
2019-02-19T11:35:20.027Z,15.87
2019-02-19T11:37:49.549Z,14.57
2019-02-19T11:40:19.255Z,14.70
2019-02-19T11:42:48.910Z,12.23
2019-02-19T11:45:18.631Z,12.17
2019-02-19T11:47:48.360Z,11.60
2019-02-19T11:50:18.230Z,11.07
2019-02-19T11:52:47.746Z,12.97
2019-02-19T11:55:17.459Z,14.67
2019-02-19T11:57:47.212Z,18.33
2019-02-19T12:00:20.156Z,17.77
2019-02-19T12:02:49.950Z,18.43
2019-02-19T12:05:19.644Z,18.10
2019-02-19T12:07:49.246Z,18.77
2019-02-19T12:10:18.870Z,18.00
2019-02-19T12:12:48.523Z,18.57
2019-02-19T12:15:19.262Z,18.23
2019-02-19T12:17:49.088Z,15.80
2019-02-19T12:20:18.744Z,16.27
2019-02-19T12:22:48.489Z,18.93
2019-02-19T12:25:18.064Z,17.33
2019-02-19T12:27:47.744Z,17.73
2019-02-19T12:30:17.271Z,17.20
2019-02-19T12:32:46.892Z,16.57
2019-02-19T12:35:16.648Z,16.53
2019-02-19T12:37:46.340Z,15.37
2019-02-19T12:40:16.164Z,17.33
2019-02-19T12:42:45.889Z,14.00
2019-02-19T12:45:15.422Z,13.97
2019-02-19T12:47:45.005Z,13.87
2019-02-19T12:50:14.731Z,13.77
2019-02-19T12:52:44.178Z,17.03
2019-02-19T12:55:13.814Z,15.73
2019-02-19T12:57:43.438Z,12.47
2019-02-19T13:00:14.755Z,11.87
2019-02-19T13:02:44.418Z,12.90
2019-02-19T13:05:14.458Z,12.57
2019-02-19T13:07:44.240Z,13.53
2019-02-19T13:10:13.879Z,13.03
2019-02-19T13:12:43.568Z,12.50
2019-02-19T13:15:14.249Z,12.97
2019-02-19T13:17:44.027Z,13.40
2019-02-19T13:20:14.509Z,11.80
2019-02-19T13:22:44.292Z,23.63
2019-02-19T13:25:14.068Z,13.37
2019-02-19T13:27:43.538Z,13.53
2019-02-19T13:30:14.844Z,12.13
2019-02-19T13:32:44.627Z,12.27
2019-02-19T13:35:14.529Z,12.23
2019-02-19T13:37:44.242Z,11.40
2019-02-19T13:40:14.202Z,10.83
2019-02-19T13:42:44.050Z,11.10
2019-02-19T13:45:14.003Z,10.77
2019-02-19T13:47:43.763Z,12.77
2019-02-19T13:50:15.841Z,12.23
2019-02-19T13:53:13.583Z,12.27
2019-02-19T13:55:46.460Z,10.83
2019-02-19T13:58:16.107Z,11.40
2019-02-19T14:00:47.419Z,10.00
2019-02-19T14:03:16.949Z,10.77
2019-02-19T14:05:46.744Z,10.27
2019-02-19T14:08:16.529Z,10.50
2019-02-19T14:10:46.138Z,10.50
2019-02-19T14:13:15.925Z,10.97
2019-02-19T14:16:10.297Z,9.63
2019-02-19T14:18:54.610Z,8.87
2019-02-19T14:21:43.249Z,9.20
2019-02-19T14:24:35.163Z,10.00
2019-02-19T14:27:42.340Z,9.13
2019-02-19T14:30:26.872Z,9.13
2019-02-19T14:33:21.285Z,9.80
2019-02-19T14:36:18.743Z,9.83
2019-02-19T14:39:05.877Z,10.47
2019-02-19T14:41:53.191Z,10.40
2019-02-19T14:44:38.106Z,10.30
2019-02-19T14:47:25.462Z,10.70
2019-02-19T14:50:12.892Z,10.70
2019-02-19T14:53:00.165Z,11.37
2019-02-19T14:55:57.513Z,11.23
2019-02-19T14:58:57.506Z,11.37
2019-02-19T15:02:01.380Z,11.47
2019-02-19T15:04:52.955Z,10.97
2019-02-19T15:07:40.191Z,11.23
2019-02-19T15:10:31.888Z,11.73
2019-02-19T15:13:32.388Z,11.37
2019-02-19T15:16:30.159Z,11.90
2019-02-19T15:19:39.177Z,13.00
2019-02-19T15:22:27.736Z,12.20
2019-02-19T15:25:22.091Z,12.40
2019-02-19T15:28:09.377Z,12.53
2019-02-19T15:30:52.977Z,13.70
2019-02-19T15:33:40.141Z,13.80
2019-02-19T15:36:23.121Z,13.70
2019-02-19T15:39:11.728Z,15.40
2019-02-19T15:42:00.476Z,15.87
2019-02-19T15:45:04.163Z,17.57
2019-02-19T15:47:51.570Z,18.40
2019-02-19T15:50:39.071Z,18.13
2019-02-19T15:53:30.495Z,17.80
2019-02-19T15:56:18.001Z,18.47
2019-02-19T15:59:09.475Z,17.33
2019-02-19T16:01:57.050Z,17.50
2019-02-19T16:04:39.628Z,19.30
2019-02-19T16:07:22.499Z,29.70
2019-02-19T16:10:19.335Z,30.93
2019-02-19T16:12:57.179Z,28.90
2019-02-19T16:15:48.804Z,28.77
2019-02-19T16:18:43.575Z,34.37
2019-02-19T16:21:35.289Z,31.13
2019-02-19T16:24:29.769Z,35.03
2019-02-19T16:27:15.321Z,38.40
2019-02-19T16:30:13.168Z,33.93
2019-02-19T16:32:49.961Z,32.03
2019-02-19T16:35:38.347Z,32.30
2019-02-19T16:38:29.835Z,33.63
2019-02-19T16:41:21.300Z,29.33
2019-02-19T16:44:28.034Z,25.93
2019-02-19T16:47:16.511Z,25.57
2019-02-19T16:50:17.199Z,24.00
2019-02-19T16:53:11.642Z,29.17
2019-02-19T16:55:59.177Z,34.67
2019-02-19T16:58:46.795Z,43.27
2019-02-19T17:01:38.570Z,39.70
2019-02-19T17:04:36.471Z,36.17
2019-02-19T17:07:25.163Z,37.57
2019-02-19T17:10:02.647Z,29.77
2019-02-19T17:12:40.353Z,27.83
2019-02-19T17:15:38.041Z,24.00
2019-02-19T17:18:35.681Z,24.57
2019-02-19T17:21:24.379Z,24.17
2019-02-19T17:24:06.777Z,27.17
2019-02-19T17:26:52.662Z,26.37
2019-02-19T17:29:50.159Z,28.37
2019-02-19T17:32:36.957Z,25.77
2019-02-19T17:35:15.295Z,24.43
2019-02-19T17:37:58.337Z,22.43
2019-02-19T17:40:36.858Z,24.67
2019-02-19T17:43:28.443Z,24.90
2019-02-19T17:46:08.394Z,22.40
2019-02-19T17:48:50.924Z,25.40
2019-02-19T17:51:28.042Z,24.23
2019-02-19T17:54:09.450Z,26.93
2019-02-19T17:57:01.789Z,62.23
2019-02-19T17:59:50.263Z,37.70
2019-02-19T18:02:38.823Z,46.93
2019-02-19T18:05:26.515Z,28.50
2019-02-19T18:08:21.146Z,27.43
2019-02-19T18:11:09.708Z,29.00
2019-02-19T18:14:04.468Z,30.73
2019-02-19T18:16:59.900Z,30.43
2019-02-19T18:19:30.227Z,36.63
2019-02-19T18:21:59.864Z,25.17
2019-02-19T18:24:32.686Z,23.10
2019-02-19T18:27:02.486Z,25.70
2019-02-19T18:29:33.663Z,23.23
2019-02-19T18:32:06.808Z,25.47
2019-02-19T18:34:36.682Z,22.33
2019-02-19T18:37:06.267Z,23.03
2019-02-19T18:39:36.025Z,21.70
2019-02-19T18:42:05.809Z,22.27
2019-02-19T18:44:35.532Z,21.60
2019-02-19T18:47:05.332Z,22.50
2019-02-19T18:49:34.990Z,20.70
2019-02-19T18:52:05.568Z,32.53
2019-02-19T18:54:36.891Z,23.70
2019-02-19T18:57:09.809Z,21.73
2019-02-19T18:59:43.147Z,21.03
2019-02-19T19:02:12.822Z,23.17
2019-02-19T19:04:42.785Z,22.63
2019-02-19T19:07:12.402Z,22.33
2019-02-19T19:09:42.046Z,23.33
2019-02-19T19:12:11.757Z,45.40
2019-02-19T19:14:41.647Z,23.17
2019-02-19T19:17:11.143Z,22.13
2019-02-19T19:19:40.806Z,21.83
2019-02-19T19:22:10.690Z,18.70
2019-02-19T19:24:40.482Z,19.90
2019-02-19T19:27:10.176Z,19.13
2019-02-19T19:29:39.895Z,28.20
2019-02-19T19:32:09.719Z,23.23
2019-02-19T19:34:39.471Z,22.53
2019-02-19T19:37:09.260Z,20.73
2019-02-19T19:39:38.977Z,20.70
2019-02-19T19:42:08.730Z,20.33
2019-02-19T19:44:38.452Z,20.73
2019-02-19T19:47:08.265Z,20.60
2019-02-19T19:49:37.905Z,21.53
2019-02-19T19:52:07.840Z,21.50
2019-02-19T19:54:37.467Z,21.13
2019-02-19T19:57:07.130Z,20.47
2019-02-19T19:59:36.976Z,20.87
2019-02-19T20:02:06.744Z,21.57
2019-02-19T20:04:36.453Z,20.97
2019-02-19T20:07:06.095Z,21.43
2019-02-19T20:09:35.687Z,23.87
2019-02-19T20:12:05.385Z,22.20
2019-02-19T20:14:35.333Z,23.20
2019-02-19T20:17:05.072Z,23.53
2019-02-19T20:19:34.808Z,24.60
2019-02-19T20:22:04.787Z,24.67
2019-02-19T20:24:34.377Z,23.63
2019-02-19T20:27:04.279Z,27.20
2019-02-19T20:29:33.911Z,25.93
2019-02-19T20:32:03.566Z,26.23
2019-02-19T20:34:33.195Z,24.67
2019-02-19T20:37:02.928Z,26.33
2019-02-19T20:39:32.700Z,25.90
2019-02-19T20:42:02.447Z,26.23
2019-02-19T20:44:32.023Z,23.20
2019-02-19T20:47:01.644Z,24.07
2019-02-19T20:49:31.251Z,20.67
2019-02-19T20:52:00.872Z,20.63
2019-02-19T20:54:30.509Z,22.37
2019-02-19T20:56:59.971Z,20.33
2019-02-19T20:59:29.762Z,19.90
2019-02-19T21:01:59.268Z,21.27
2019-02-19T21:04:28.945Z,20.63
2019-02-19T21:06:58.723Z,18.93
2019-02-19T21:09:30.397Z,20.87
2019-02-19T21:11:59.927Z,20.60
2019-02-19T21:14:29.505Z,19.20
2019-02-19T21:16:59.308Z,17.17
2019-02-19T21:19:29.070Z,17.47
2019-02-19T21:21:58.523Z,15.63
2019-02-19T21:24:28.121Z,16.10
2019-02-19T21:26:57.857Z,16.40
2019-02-19T21:29:27.488Z,16.20
2019-02-19T21:31:57.069Z,16.10
2019-02-19T21:34:26.739Z,17.13
2019-02-19T21:36:56.387Z,17.17
2019-02-19T21:39:25.988Z,16.33
2019-02-19T21:41:55.518Z,16.90
2019-02-19T21:44:25.238Z,14.77
2019-02-19T21:46:55.025Z,16.07
2019-02-19T21:49:24.906Z,16.20
2019-02-19T21:51:54.575Z,17.30
2019-02-19T21:54:24.256Z,18.50
2019-02-19T21:56:53.849Z,20.90
2019-02-19T21:59:23.459Z,20.97
2019-02-19T22:01:53.148Z,24.37
2019-02-19T22:04:22.897Z,22.50
2019-02-19T22:06:52.616Z,25.73
2019-02-19T22:09:22.303Z,23.00
2019-02-19T22:11:51.888Z,25.07
2019-02-19T22:14:21.512Z,24.53
2019-02-19T22:16:51.130Z,25.17
2019-02-19T22:19:21.015Z,26.23
2019-02-19T22:22:03.419Z,23.87
2019-02-19T22:24:37.165Z,26.70
2019-02-19T22:27:07.967Z,24.73
2019-02-19T22:29:37.694Z,24.70
2019-02-19T22:32:08.276Z,23.97
2019-02-19T22:34:37.991Z,25.43
2019-02-19T22:37:07.727Z,23.73
2019-02-19T22:39:37.544Z,22.30
2019-02-19T22:42:07.139Z,22.13
2019-02-19T22:44:36.597Z,21.37
2019-02-19T22:47:06.331Z,21.40
2019-02-19T22:49:35.994Z,20.97
2019-02-19T22:52:12.313Z,22.20
2019-02-19T22:54:47.264Z,19.93
2019-02-19T22:57:17.363Z,19.87
2019-02-19T22:59:46.973Z,19.93
2019-02-19T23:02:22.519Z,20.40
2019-02-19T23:04:52.126Z,19.80
2019-02-19T23:07:21.813Z,21.03
2019-02-19T23:09:51.387Z,21.27
2019-02-19T23:12:21.097Z,20.87
2019-02-19T23:14:50.791Z,20.67
2019-02-19T23:17:20.548Z,20.07
2019-02-19T23:19:50.229Z,20.07
2019-02-19T23:22:21.828Z,21.27
2019-02-19T23:24:51.384Z,20.63
2019-02-19T23:27:21.061Z,20.20
2019-02-19T23:29:50.828Z,21.37
2019-02-19T23:32:20.538Z,20.30
2019-02-19T23:35:09.061Z,21.37
2019-02-19T23:37:38.942Z,20.70
2019-02-19T23:40:08.666Z,21.80
2019-02-19T23:42:38.241Z,22.20
2019-02-19T23:45:07.896Z,21.57
2019-02-19T23:47:37.468Z,22.57
2019-02-19T23:50:07.464Z,21.60
2019-02-19T23:52:37.129Z,24.27
2019-02-19T23:55:07.038Z,22.80
2019-02-19T23:57:36.701Z,23.30
